createdAt,value
2024-04-09T00:00:03.929Z,72.87
2024-04-09T00:01:03.971Z,72.81
2024-04-09T00:02:03.864Z,72.81
2024-04-09T00:03:03.966Z,73.00
2024-04-09T00:04:04.026Z,73.11
2024-04-09T00:05:03.964Z,73.31
2024-04-09T00:06:03.847Z,73.61
2024-04-09T00:07:03.795Z,73.61
2024-04-09T00:08:03.794Z,74.01
2024-04-09T00:09:03.839Z,74.11
2024-04-09T00:10:03.784Z,74.11
2024-04-09T00:11:03.749Z,74.21
2024-04-09T00:12:03.789Z,74.21
2024-04-09T00:13:03.738Z,73.91
2024-04-09T00:14:03.740Z,73.91
2024-04-09T00:15:03.757Z,73.81
2024-04-09T00:16:03.702Z,73.71
2024-04-09T00:17:03.750Z,73.61
2024-04-09T00:18:03.825Z,73.55
2024-04-09T00:19:03.777Z,73.55
2024-04-09T00:20:03.664Z,73.55
2024-04-09T00:21:03.726Z,73.65
2024-04-09T00:22:03.643Z,73.75
2024-04-09T00:23:03.619Z,73.95
2024-04-09T00:24:03.641Z,73.95
2024-04-09T00:25:03.597Z,73.95
2024-04-09T00:26:03.623Z,74.05
2024-04-09T00:27:03.596Z,74.35
2024-04-09T00:28:03.587Z,74.25
2024-04-09T00:29:03.606Z,74.15
2024-04-09T00:30:03.610Z,74.15
2024-04-09T00:31:03.552Z,74.15
2024-04-09T00:32:03.527Z,74.15
2024-04-09T00:33:03.749Z,74.05
2024-04-09T00:34:03.683Z,73.95
2024-04-09T00:35:03.520Z,73.95
2024-04-09T00:36:03.524Z,73.95
2024-04-09T00:37:03.467Z,73.95
2024-04-09T00:38:03.460Z,74.05
2024-04-09T00:39:03.562Z,74.15
2024-04-09T00:40:03.448Z,74.25
2024-04-09T00:41:03.446Z,74.25
2024-04-09T00:42:03.498Z,74.29
2024-04-09T00:43:03.408Z,74.55
2024-04-09T00:44:03.430Z,74.79
2024-04-09T00:45:03.426Z,74.89
2024-04-09T00:46:03.380Z,74.89
2024-04-09T00:47:03.395Z,74.79
2024-04-09T00:48:03.651Z,74.79
2024-04-09T00:49:03.612Z,74.69
2024-04-09T00:50:03.336Z,74.58
2024-04-09T00:51:03.361Z,74.79
2024-04-09T00:52:03.698Z,75.09
2024-04-09T00:53:03.334Z,75.19
2024-04-09T00:54:03.289Z,75.19
2024-04-09T00:55:03.268Z,75.19
2024-04-09T00:56:03.262Z,75.09
2024-04-09T00:57:04.038Z,75.09
2024-04-09T00:58:03.249Z,75.09
2024-04-09T00:59:04.020Z,74.99
2024-04-09T01:00:03.283Z,74.99
2024-04-09T01:01:03.221Z,74.99
2024-04-09T01:02:03.191Z,74.99
2024-04-09T01:03:03.381Z,75.09
2024-04-09T01:04:03.337Z,75.09
2024-04-09T01:05:03.166Z,75.09
2024-04-09T01:06:03.206Z,75.09
2024-04-09T01:07:03.147Z,75.19
2024-04-09T01:08:03.139Z,75.43
2024-04-09T01:09:03.152Z,75.53
2024-04-09T01:10:03.112Z,75.33
2024-04-09T01:11:03.118Z,75.33
2024-04-09T01:12:03.130Z,75.23
2024-04-09T01:13:03.099Z,75.33
2024-04-09T01:14:03.088Z,75.33
2024-04-09T01:15:03.113Z,75.23
2024-04-09T01:16:03.045Z,75.23
2024-04-09T01:17:03.080Z,75.33
2024-04-09T01:18:03.115Z,75.23
2024-04-09T01:19:03.137Z,75.33
2024-04-09T01:20:02.997Z,75.33
2024-04-09T01:21:03.059Z,75.43
2024-04-09T01:22:02.987Z,75.33
2024-04-09T01:23:02.973Z,75.43
2024-04-09T01:24:02.995Z,75.43
2024-04-09T01:25:03.017Z,75.53
2024-04-09T01:26:02.934Z,75.63
2024-04-09T01:27:02.949Z,75.83
2024-04-09T01:28:02.915Z,75.83
2024-04-09T01:29:02.912Z,75.83
2024-04-09T01:30:03.000Z,75.83
2024-04-09T01:31:02.898Z,76.03
2024-04-09T01:32:02.875Z,76.14
2024-04-09T01:33:03.320Z,76.23
2024-04-09T01:34:03.053Z,76.43
2024-04-09T01:35:02.885Z,76.54
2024-04-09T01:36:02.863Z,76.64
2024-04-09T01:37:02.821Z,76.84
2024-04-09T01:38:02.807Z,76.94
2024-04-09T01:39:02.826Z,77.14
2024-04-09T01:40:02.794Z,77.24
2024-04-09T01:41:02.795Z,77.24
2024-04-09T01:42:02.834Z,77.14
2024-04-09T01:43:02.765Z,77.14
2024-04-09T01:44:02.775Z,77.28
2024-04-09T01:45:02.796Z,77.38
2024-04-09T01:46:02.725Z,77.38
2024-04-09T01:47:02.810Z,77.38
2024-04-09T01:48:02.839Z,77.38
2024-04-09T01:49:02.720Z,77.38
2024-04-09T01:50:02.691Z,77.38
2024-04-09T01:51:02.722Z,77.58
2024-04-09T01:52:02.662Z,77.68
2024-04-09T01:53:02.649Z,77.78
2024-04-09T01:54:02.705Z,77.68
2024-04-09T01:55:02.633Z,77.58
2024-04-09T01:56:02.626Z,77.48
2024-04-09T01:57:02.660Z,77.48
2024-04-09T01:58:02.638Z,77.48
2024-04-09T01:59:02.593Z,77.68
2024-04-09T02:00:02.621Z,77.88
2024-04-09T02:01:02.603Z,77.98
2024-04-09T02:02:02.556Z,78.08
2024-04-09T02:03:02.833Z,78.28
2024-04-09T02:04:02.622Z,78.39
2024-04-09T02:05:02.526Z,78.39
2024-04-09T02:06:02.564Z,78.52
2024-04-09T02:07:02.503Z,78.63
2024-04-09T02:08:02.498Z,78.63
2024-04-09T02:09:02.539Z,78.72
2024-04-09T02:10:02.465Z,78.63
2024-04-09T02:11:02.460Z,78.63
2024-04-09T02:12:02.689Z,78.63
2024-04-09T02:13:02.468Z,78.52
2024-04-09T02:14:02.422Z,78.72
2024-04-09T02:15:02.438Z,78.72
2024-04-09T02:16:02.434Z,78.83
2024-04-09T02:17:02.393Z,78.83
2024-04-09T02:18:02.441Z,78.83
2024-04-09T02:19:02.395Z,78.83
2024-04-09T02:20:02.389Z,79.03
2024-04-09T02:21:02.377Z,79.16
2024-04-09T02:22:02.357Z,79.27
2024-04-09T02:23:02.332Z,79.27
2024-04-09T02:24:02.435Z,79.36
2024-04-09T02:25:02.316Z,79.36
2024-04-09T02:26:02.296Z,79.47
2024-04-09T02:27:02.426Z,79.47
2024-04-09T02:28:02.310Z,79.77
2024-04-09T02:29:02.276Z,79.97
2024-04-09T02:30:02.377Z,80.07
2024-04-09T02:31:02.273Z,80.38
2024-04-09T02:32:02.398Z,80.38
2024-04-09T02:33:02.331Z,80.38
2024-04-09T02:34:02.317Z,80.47
2024-04-09T02:35:02.213Z,80.47
2024-04-09T02:36:02.224Z,80.47
2024-04-09T02:37:02.178Z,80.47
2024-04-09T02:38:02.190Z,80.47
2024-04-09T02:39:02.268Z,80.47
2024-04-09T02:40:02.143Z,80.58
2024-04-09T02:41:02.141Z,80.47
2024-04-09T02:42:02.138Z,80.38
2024-04-09T02:43:02.108Z,80.47
2024-04-09T02:44:02.125Z,80.58
2024-04-09T02:45:02.165Z,80.68
2024-04-09T02:46:02.117Z,80.78
2024-04-09T02:47:02.207Z,80.78
2024-04-09T02:48:02.197Z,80.88
2024-04-09T02:49:02.202Z,80.98
2024-04-09T02:50:02.048Z,80.88
2024-04-09T02:51:02.118Z,80.92
2024-04-09T02:52:02.025Z,80.92
2024-04-09T02:53:02.011Z,80.92
2024-04-09T02:54:02.037Z,80.92
2024-04-09T02:55:02.027Z,81.02
2024-04-09T02:56:01.962Z,81.02
2024-04-09T02:57:02.039Z,81.22
2024-04-09T02:58:01.949Z,81.32
2024-04-09T02:59:02.166Z,81.42
2024-04-09T03:00:02.066Z,81.62
2024-04-09T03:01:02.085Z,81.52
2024-04-09T03:02:01.916Z,81.42
2024-04-09T03:03:01.945Z,81.42
2024-04-09T03:04:02.149Z,81.32
2024-04-09T03:05:01.954Z,81.32
2024-04-09T03:06:02.030Z,81.32
2024-04-09T03:07:01.861Z,81.32
2024-04-09T03:08:02.000Z,81.32
2024-04-09T03:09:01.984Z,81.32
2024-04-09T03:10:01.823Z,81.32
2024-04-09T03:11:01.919Z,81.32
2024-04-09T03:12:02.661Z,81.22
2024-04-09T03:13:01.849Z,81.32
2024-04-09T03:14:01.885Z,81.32
2024-04-09T03:15:02.056Z,81.52
2024-04-09T03:16:01.973Z,81.62
2024-04-09T03:17:01.826Z,81.73
2024-04-09T03:18:01.980Z,81.93
2024-04-09T03:19:01.863Z,82.03
2024-04-09T03:20:01.750Z,82.13
2024-04-09T03:21:02.105Z,82.23
2024-04-09T03:22:02.108Z,82.33
2024-04-09T03:23:01.689Z,82.37
2024-04-09T03:24:01.813Z,82.37
2024-04-09T03:25:01.662Z,82.37
2024-04-09T03:26:01.654Z,82.47
2024-04-09T03:27:01.749Z,82.47
2024-04-09T03:28:01.621Z,82.67
2024-04-09T03:29:01.614Z,82.78
2024-04-09T03:30:01.681Z,82.78
2024-04-09T03:31:01.587Z,82.78
2024-04-09T03:32:01.588Z,82.78
2024-04-09T03:33:02.563Z,82.67
2024-04-09T03:34:01.817Z,82.67
2024-04-09T03:35:01.542Z,82.57
2024-04-09T03:36:01.590Z,82.57
2024-04-09T03:37:01.579Z,82.57
2024-04-09T03:38:01.541Z,82.67
2024-04-09T03:39:01.555Z,82.87
2024-04-09T03:40:01.496Z,82.98
2024-04-09T03:41:01.498Z,83.07
2024-04-09T03:42:01.542Z,83.07
2024-04-09T03:43:01.452Z,83.07
2024-04-09T03:44:01.444Z,83.07
2024-04-09T03:45:01.573Z,83.18
2024-04-09T03:46:01.480Z,83.18
2024-04-09T03:47:01.439Z,83.07
2024-04-09T03:48:01.620Z,83.18
2024-04-09T03:49:01.649Z,83.18
2024-04-09T03:50:01.387Z,83.28
2024-04-09T03:51:01.425Z,83.18
2024-04-09T03:52:01.382Z,83.18
2024-04-09T03:53:01.347Z,83.07
2024-04-09T03:54:01.390Z,83.07
2024-04-09T03:55:01.327Z,83.07
2024-04-09T03:56:01.318Z,83.07
2024-04-09T03:57:01.360Z,83.07
2024-04-09T03:58:01.328Z,83.07
2024-04-09T03:59:01.299Z,83.07
2024-04-09T04:00:01.357Z,83.18
2024-04-09T04:01:02.957Z,83.28
2024-04-09T04:02:01.320Z,83.28
2024-04-09T04:03:01.299Z,83.28
2024-04-09T04:04:01.373Z,83.42
2024-04-09T04:05:01.221Z,83.52
2024-04-09T04:06:01.257Z,83.62
2024-04-09T04:07:01.209Z,83.62
2024-04-09T04:08:01.197Z,83.62
2024-04-09T04:09:01.194Z,83.62
2024-04-09T04:10:01.173Z,83.72
2024-04-09T04:11:01.196Z,83.72
2024-04-09T04:12:01.216Z,83.82
2024-04-09T04:13:01.127Z,83.92
2024-04-09T04:14:01.123Z,83.92
2024-04-09T04:15:01.171Z,84.03
2024-04-09T04:16:01.116Z,84.12
2024-04-09T04:17:01.108Z,84.23
2024-04-09T04:18:01.253Z,84.12
2024-04-09T04:19:01.093Z,84.12
2024-04-09T04:20:01.069Z,84.23
2024-04-09T04:21:01.086Z,84.23
2024-04-09T04:22:01.057Z,84.33
2024-04-09T04:23:01.028Z,84.33
2024-04-09T04:24:01.049Z,84.43
2024-04-09T04:25:01.017Z,84.43
2024-04-09T04:26:01.019Z,84.53
2024-04-09T04:27:01.029Z,84.53
2024-04-09T04:28:00.987Z,84.53
2024-04-09T04:29:00.951Z,84.63
2024-04-09T04:30:01.042Z,84.63
2024-04-09T04:31:00.930Z,84.63
2024-04-09T04:32:00.935Z,84.63
2024-04-09T04:33:01.098Z,84.63
2024-04-09T04:34:01.136Z,84.63
2024-04-09T04:35:00.920Z,84.73
2024-04-09T04:36:00.942Z,84.83
2024-04-09T04:37:00.882Z,84.83
2024-04-09T04:38:00.864Z,84.83
2024-04-09T04:39:00.928Z,84.73
2024-04-09T04:40:00.862Z,84.73
2024-04-09T04:41:00.840Z,84.83
2024-04-09T04:42:00.899Z,84.83
2024-04-09T04:43:00.809Z,84.93
2024-04-09T04:44:00.839Z,84.93
2024-04-09T04:45:00.857Z,84.93
2024-04-09T04:46:00.784Z,84.93
2024-04-09T04:47:00.790Z,84.93
2024-04-09T04:48:00.937Z,84.93
2024-04-09T04:49:00.933Z,84.83
2024-04-09T04:50:00.756Z,84.83
2024-04-09T04:51:00.776Z,84.93
2024-04-09T04:52:00.706Z,85.03
2024-04-09T04:53:00.714Z,85.03
2024-04-09T04:54:00.786Z,85.03
2024-04-09T04:55:00.690Z,85.03
2024-04-09T04:56:00.679Z,85.03
2024-04-09T04:57:00.696Z,84.93
2024-04-09T04:58:00.649Z,85.03
2024-04-09T04:59:00.656Z,84.93
2024-04-09T05:00:00.756Z,84.93
2024-04-09T05:01:00.930Z,84.93
2024-04-09T05:02:00.670Z,85.03
2024-04-09T05:03:00.943Z,84.93
2024-04-09T05:04:00.687Z,84.93
2024-04-09T05:05:00.594Z,84.93
2024-04-09T05:06:00.580Z,84.93
2024-04-09T05:07:00.546Z,84.93
2024-04-09T05:08:00.584Z,84.73
2024-04-09T05:09:00.599Z,84.73
2024-04-09T05:10:00.538Z,84.73
2024-04-09T05:11:00.556Z,84.93
2024-04-09T05:12:00.540Z,85.03
2024-04-09T05:13:00.482Z,85.03
2024-04-09T05:14:00.476Z,84.93
2024-04-09T05:15:00.588Z,84.89
2024-04-09T05:16:00.487Z,84.93
2024-04-09T05:17:00.448Z,84.99
2024-04-09T05:18:00.603Z,84.89
2024-04-09T05:19:00.627Z,85.10
2024-04-09T05:20:00.426Z,85.19
2024-04-09T05:21:00.474Z,85.19
2024-04-09T05:22:00.444Z,85.10
2024-04-09T05:23:00.400Z,85.10
2024-04-09T05:24:00.419Z,84.99
2024-04-09T05:25:00.370Z,84.99
2024-04-09T05:26:00.355Z,84.99
2024-04-09T05:27:00.376Z,84.99
2024-04-09T05:28:00.358Z,85.10
2024-04-09T05:29:00.307Z,85.10
2024-04-09T05:30:00.392Z,85.19
2024-04-09T05:31:00.383Z,85.19
2024-04-09T05:32:00.321Z,85.10
2024-04-09T05:33:00.530Z,85.10
2024-04-09T05:34:00.340Z,84.99
2024-04-09T05:35:00.263Z,84.89
2024-04-09T05:36:00.260Z,84.89
2024-04-09T05:37:00.263Z,84.79
2024-04-09T05:38:00.227Z,84.75
2024-04-09T05:39:00.246Z,84.75
2024-04-09T05:40:00.237Z,84.65
2024-04-09T05:41:00.183Z,84.55
2024-04-09T05:42:00.240Z,84.55
2024-04-09T05:43:00.175Z,84.45
2024-04-09T05:44:00.162Z,84.45
2024-04-09T05:45:00.223Z,84.35
2024-04-09T05:46:00.150Z,84.25
2024-04-09T05:47:00.114Z,84.25
2024-04-09T05:48:00.271Z,84.11
2024-04-09T05:49:00.218Z,84.11
2024-04-09T05:50:00.126Z,84.01
2024-04-09T05:51:00.143Z,84.01
2024-04-09T05:52:00.064Z,84.21
2024-04-09T05:53:00.065Z,84.41
2024-04-09T05:54:00.142Z,84.41
2024-04-09T05:55:00.027Z,84.31
2024-04-09T05:56:00.020Z,84.31
2024-04-09T05:57:00.040Z,84.31
2024-04-09T05:58:00.000Z,84.21
2024-04-09T05:59:00.009Z,84.11
2024-04-09T06:00:00.011Z,83.97
2024-04-09T06:01:00.095Z,83.87
2024-04-09T06:01:59.975Z,83.76
2024-04-09T06:03:00.020Z,83.76
2024-04-09T06:03:59.972Z,83.56
2024-04-09T06:04:59.953Z,83.46
2024-04-09T06:06:00.011Z,83.46
2024-04-09T06:06:59.899Z,83.36
2024-04-09T06:07:59.885Z,83.36
2024-04-09T06:08:59.925Z,83.06
2024-04-09T06:10:00.015Z,83.02
2024-04-09T06:10:59.852Z,83.22
2024-04-09T06:11:59.863Z,83.22
2024-04-09T06:12:59.833Z,83.02
2024-04-09T06:13:59.831Z,82.92
2024-04-09T06:14:59.962Z,82.82
2024-04-09T06:15:59.822Z,82.71
2024-04-09T06:16:59.801Z,82.71
2024-04-09T06:17:59.940Z,82.62
2024-04-09T06:19:00.007Z,82.51
2024-04-09T06:19:59.833Z,82.48
2024-04-09T06:20:59.828Z,82.48
2024-04-09T06:21:59.754Z,82.38
2024-04-09T06:22:59.727Z,82.48
2024-04-09T06:23:59.783Z,82.38
2024-04-09T06:24:59.731Z,82.38
2024-04-09T06:25:59.708Z,82.38
2024-04-09T06:26:59.717Z,82.28
2024-04-09T06:27:59.684Z,82.14
2024-04-09T06:28:59.676Z,82.24
2024-04-09T06:29:59.720Z,82.14
2024-04-09T06:30:59.644Z,82.14
2024-04-09T06:31:59.663Z,81.73
2024-04-09T06:32:59.839Z,81.63
2024-04-09T06:33:59.737Z,81.53
2024-04-09T06:34:59.613Z,81.53
2024-04-09T06:36:05.677Z,80.99
2024-04-09T06:36:59.621Z,80.99
2024-04-09T06:37:59.641Z,80.89
2024-04-09T06:38:59.622Z,80.79
2024-04-09T06:39:59.601Z,80.49
2024-04-09T06:40:59.529Z,80.29
2024-04-09T06:41:59.556Z,80.29
2024-04-09T06:42:59.513Z,80.19
2024-04-09T06:43:59.510Z,80.29
2024-04-09T06:44:59.561Z,80.35
2024-04-09T06:45:59.508Z,80.65
2024-04-09T06:46:59.463Z,80.05
2024-04-09T06:47:59.606Z,79.94
2024-04-09T06:48:59.656Z,79.74
2024-04-09T06:49:59.459Z,79.64
2024-04-09T06:50:59.464Z,79.64
2024-04-09T06:51:59.408Z,79.44
2024-04-09T06:52:59.414Z,79.24
2024-04-09T06:53:59.478Z,79.30
2024-04-09T06:54:59.382Z,79.41
2024-04-09T06:55:59.384Z,79.30
2024-04-09T06:56:59.466Z,79.41
2024-04-09T06:57:59.352Z,79.10
2024-04-09T06:58:59.351Z,79.00
2024-04-09T06:59:59.391Z,78.80
2024-04-09T07:00:59.382Z,78.77
2024-04-09T07:01:59.365Z,78.77
2024-04-09T07:02:59.398Z,78.56
2024-04-09T07:03:59.397Z,78.46
2024-04-09T07:04:59.297Z,78.46
2024-04-09T07:05:59.277Z,78.56
2024-04-09T07:06:59.264Z,78.36
2024-04-09T07:07:59.261Z,78.46
2024-04-09T07:08:59.269Z,78.53
2024-04-09T07:09:59.219Z,78.42
2024-04-09T07:10:59.207Z,78.22
2024-04-09T07:11:59.222Z,77.92
2024-04-09T07:12:59.192Z,78.03
2024-04-09T07:13:59.170Z,77.83
2024-04-09T07:14:59.207Z,77.72
2024-04-09T07:15:59.156Z,77.62
2024-04-09T07:16:59.201Z,77.89
2024-04-09T07:17:59.253Z,77.89
2024-04-09T07:18:59.280Z,77.59
2024-04-09T07:19:59.126Z,76.98
2024-04-09T07:20:59.195Z,76.89
2024-04-09T07:21:59.090Z,76.98
2024-04-09T07:22:59.076Z,76.98
2024-04-09T07:23:59.142Z,76.95
2024-04-09T07:24:59.095Z,76.95
2024-04-09T07:25:59.044Z,76.85
2024-04-09T07:26:59.064Z,76.45
2024-04-09T07:27:59.019Z,76.15
2024-04-09T07:28:59.009Z,76.15
2024-04-09T07:29:59.023Z,76.04
2024-04-09T07:30:59.054Z,76.04
2024-04-09T07:31:58.978Z,75.81
2024-04-09T07:32:59.152Z,75.60
2024-04-09T07:33:59.147Z,75.21
2024-04-09T07:34:58.952Z,74.90
2024-04-09T07:35:58.976Z,74.80
2024-04-09T07:36:58.928Z,74.80
2024-04-09T07:37:58.923Z,74.80
2024-04-09T07:38:59.001Z,74.60
2024-04-09T07:39:58.914Z,74.51
2024-04-09T07:40:58.895Z,74.37
2024-04-09T07:41:58.965Z,74.37
2024-04-09T07:42:58.859Z,74.17
2024-04-09T07:43:58.853Z,74.17
2024-04-09T07:44:58.864Z,74.27
2024-04-09T07:45:58.831Z,74.27
2024-04-09T07:46:58.829Z,74.27
2024-04-09T07:47:58.919Z,74.27
2024-04-09T07:48:58.831Z,74.27
2024-04-09T07:49:58.801Z,74.23
2024-04-09T07:50:58.799Z,74.03
2024-04-09T07:51:58.793Z,74.13
2024-04-09T07:52:58.754Z,74.23
2024-04-09T07:53:58.785Z,74.13
2024-04-09T07:55:00.449Z,73.53
2024-04-09T07:55:58.712Z,73.43
2024-04-09T07:56:58.772Z,73.23
2024-04-09T07:57:58.692Z,72.93
2024-04-09T07:58:58.698Z,72.73
2024-04-09T07:59:58.727Z,72.63
2024-04-09T08:00:58.771Z,72.53
2024-04-09T08:01:58.678Z,72.63
2024-04-09T08:02:59.591Z,72.73
2024-04-09T08:03:58.779Z,72.69
2024-04-09T08:04:59.062Z,72.80
2024-04-09T08:05:59.076Z,72.50
2024-04-09T08:06:58.741Z,72.39
2024-04-09T08:07:58.658Z,72.39
2024-04-09T08:08:58.762Z,72.50
2024-04-09T08:09:58.892Z,72.39
2024-04-09T08:10:58.655Z,72.19
2024-04-09T08:11:58.728Z,72.06
2024-04-09T08:12:58.626Z,71.96
2024-04-09T08:13:58.565Z,71.96
2024-04-09T08:14:58.577Z,71.86
2024-04-09T08:15:58.501Z,71.46
2024-04-09T08:16:58.495Z,71.76
2024-04-09T08:17:58.661Z,71.56
2024-04-09T08:18:58.647Z,71.66
2024-04-09T08:19:58.604Z,71.33
2024-04-09T08:20:58.479Z,71.42
2024-04-09T08:21:58.473Z,71.23
2024-04-09T08:22:58.429Z,71.23
2024-04-09T08:23:58.426Z,71.03
2024-04-09T08:24:58.483Z,70.83
2024-04-09T08:25:58.405Z,70.83
2024-04-09T08:26:58.458Z,70.83
2024-04-09T08:27:58.383Z,70.49
2024-04-09T08:28:58.403Z,70.49
2024-04-09T08:29:58.406Z,70.39
2024-04-09T08:30:58.384Z,70.39
2024-04-09T08:31:58.393Z,70.09
2024-04-09T08:32:58.631Z,69.99
2024-04-09T08:33:58.388Z,69.99
2024-04-09T08:34:58.337Z,70.09
2024-04-09T08:35:58.471Z,69.76
2024-04-09T08:36:58.450Z,69.76
2024-04-09T08:37:58.259Z,69.86
2024-04-09T08:38:58.386Z,69.86
2024-04-09T08:39:58.512Z,69.36
2024-04-09T08:40:58.304Z,69.26
2024-04-09T08:41:58.440Z,69.26
2024-04-09T08:42:59.543Z,69.26
2024-04-09T08:43:58.379Z,69.02
2024-04-09T08:44:58.190Z,68.82
2024-04-09T08:45:58.620Z,68.73
2024-04-09T08:46:58.186Z,68.73
2024-04-09T08:47:58.405Z,68.33
2024-04-09T08:48:58.386Z,68.52
2024-04-09T08:50:01.889Z,68.40
2024-04-09T08:50:58.746Z,67.99
2024-04-09T08:51:58.207Z,68.10
2024-04-09T08:52:58.210Z,68.29
2024-04-09T08:53:58.108Z,67.90
2024-04-09T08:54:58.088Z,67.69
2024-04-09T08:55:58.073Z,67.46
2024-04-09T08:56:58.100Z,67.36
2024-04-09T08:57:58.063Z,67.16
2024-04-09T08:58:58.082Z,67.07
2024-04-09T08:59:58.027Z,66.96
2024-04-09T09:00:58.185Z,66.93
2024-04-09T09:01:59.838Z,66.83
2024-04-09T09:02:58.054Z,66.93
2024-04-09T09:03:58.119Z,66.93
2024-04-09T09:04:58.086Z,66.73
2024-04-09T09:05:57.969Z,66.80
2024-04-09T09:06:57.986Z,66.50
2024-04-09T09:07:59.921Z,66.00
2024-04-09T09:08:57.944Z,66.20
2024-04-09T09:09:57.920Z,66.20
2024-04-09T09:10:58.007Z,66.20
2024-04-09T09:11:57.929Z,65.87
2024-04-09T09:12:57.935Z,65.77
2024-04-09T09:13:59.702Z,65.67
2024-04-09T09:14:57.866Z,65.27
2024-04-09T09:15:57.925Z,64.87
2024-04-09T09:16:57.903Z,65.17
2024-04-09T09:17:58.003Z,65.27
2024-04-09T09:18:57.923Z,65.14
2024-04-09T09:19:59.920Z,64.64
2024-04-09T09:20:57.822Z,64.64
2024-04-09T09:21:57.798Z,64.34
2024-04-09T09:22:57.816Z,64.45
2024-04-09T09:23:58.330Z,64.64
2024-04-09T09:24:57.766Z,64.42
2024-04-09T09:25:57.758Z,64.72
2024-04-09T09:26:57.738Z,64.31
2024-04-09T09:27:57.743Z,63.62
2024-04-09T09:28:57.724Z,63.52
2024-04-09T09:29:57.712Z,63.92
2024-04-09T09:30:57.748Z,64.18
2024-04-09T09:31:59.394Z,63.98
2024-04-09T09:32:57.714Z,64.09
2024-04-09T09:33:57.779Z,63.29
2024-04-09T09:34:57.674Z,62.99
2024-04-09T09:35:57.691Z,62.89
2024-04-09T09:36:57.656Z,62.99
2024-04-09T09:37:59.002Z,62.99
2024-04-09T09:38:57.635Z,63.29
2024-04-09T09:39:57.636Z,63.19
2024-04-09T09:40:57.667Z,63.49
2024-04-09T09:41:57.581Z,63.39
2024-04-09T09:42:57.578Z,63.59
2024-04-09T09:43:58.833Z,63.66
2024-04-09T09:44:57.568Z,63.76
2024-04-09T09:45:57.569Z,63.66
2024-04-09T09:46:57.592Z,62.66
2024-04-09T09:47:57.745Z,62.66
2024-04-09T09:48:57.583Z,62.63
2024-04-09T09:50:02.528Z,62.43
2024-04-09T09:50:57.494Z,63.03
2024-04-09T09:51:57.496Z,62.53
2024-04-09T09:52:57.468Z,62.13
2024-04-09T09:53:57.672Z,62.13
2024-04-09T09:55:00.684Z,62.04
2024-04-09T09:55:57.451Z,61.94
2024-04-09T09:56:57.426Z,61.51
2024-04-09T09:57:57.418Z,61.71
2024-04-09T09:58:57.430Z,61.51
2024-04-09T09:59:57.416Z,61.61
2024-04-09T10:00:57.499Z,61.71
2024-04-09T10:01:57.404Z,61.91
2024-04-09T10:02:57.379Z,61.41
2024-04-09T10:03:57.640Z,61.41
2024-04-09T10:04:57.480Z,61.41
2024-04-09T10:05:57.333Z,61.71
2024-04-09T10:06:57.343Z,61.88
2024-04-09T10:07:57.302Z,60.69
2024-04-09T10:08:57.331Z,60.39
2024-04-09T10:09:57.275Z,60.49
2024-04-09T10:10:57.267Z,60.19
2024-04-09T10:11:57.312Z,60.39
2024-04-09T10:12:57.450Z,60.49
2024-04-09T10:13:57.238Z,60.78
2024-04-09T10:14:57.253Z,60.69
2024-04-09T10:15:57.387Z,60.46
2024-04-09T10:16:57.200Z,60.06
2024-04-09T10:17:57.447Z,59.86
2024-04-09T10:18:57.296Z,60.06
2024-04-09T10:19:57.183Z,60.26
2024-04-09T10:20:57.176Z,60.36
2024-04-09T10:21:57.174Z,60.63
2024-04-09T10:22:57.152Z,59.83
2024-04-09T10:23:57.141Z,59.34
2024-04-09T10:24:57.140Z,59.04
2024-04-09T10:25:57.125Z,59.04
2024-04-09T10:26:57.120Z,59.14
2024-04-09T10:27:57.091Z,59.23
2024-04-09T10:28:57.122Z,58.94
2024-04-09T10:29:57.064Z,58.94
2024-04-09T10:30:57.123Z,58.61
2024-04-09T10:31:57.057Z,58.91
2024-04-09T10:32:57.133Z,59.31
2024-04-09T10:33:57.226Z,59.51
2024-04-09T10:34:57.089Z,59.31
2024-04-09T10:35:57.009Z,59.01
2024-04-09T10:36:57.022Z,59.08
2024-04-09T10:37:56.984Z,58.98
2024-04-09T10:38:56.974Z,58.88
2024-04-09T10:39:57.044Z,59.05
2024-04-09T10:40:56.975Z,58.26
2024-04-09T10:41:56.979Z,57.67
2024-04-09T10:42:56.931Z,58.06
2024-04-09T10:43:56.926Z,58.26
2024-04-09T10:44:56.967Z,58.23
2024-04-09T10:46:05.306Z,56.95
2024-04-09T10:46:56.959Z,56.35
2024-04-09T10:47:56.963Z,55.46
2024-04-09T10:48:56.918Z,55.56
2024-04-09T10:49:56.864Z,55.26
2024-04-09T10:50:56.848Z,55.46
2024-04-09T10:51:56.977Z,55.56
2024-04-09T10:52:56.836Z,55.56
2024-04-09T10:53:56.811Z,55.66
2024-04-09T10:54:56.808Z,55.53
2024-04-09T10:55:56.798Z,55.93
2024-04-09T10:56:56.795Z,54.84
2024-04-09T10:57:56.849Z,55.24
2024-04-09T10:58:56.786Z,55.24
2024-04-09T10:59:56.749Z,55.30
2024-04-09T11:00:57.000Z,53.16
2024-04-09T11:01:56.772Z,53.55
2024-04-09T11:02:56.809Z,53.88
2024-04-09T11:03:56.750Z,54.07
2024-04-09T11:04:56.793Z,54.35
2024-04-09T11:05:56.683Z,54.14
2024-04-09T11:06:56.704Z,53.95
2024-04-09T11:07:56.700Z,54.14
2024-04-09T11:08:56.696Z,53.95
2024-04-09T11:09:56.690Z,53.85
2024-04-09T11:10:56.699Z,53.85
2024-04-09T11:11:56.627Z,54.14
2024-04-09T11:12:56.645Z,54.35
2024-04-09T11:13:56.607Z,54.44
2024-04-09T11:14:56.602Z,54.61
2024-04-09T11:15:56.588Z,54.02
2024-04-09T11:16:56.589Z,53.92
2024-04-09T11:17:56.815Z,53.80
2024-04-09T11:18:56.636Z,53.80
2024-04-09T11:19:56.547Z,53.80
2024-04-09T11:20:56.645Z,53.99
2024-04-09T11:21:56.560Z,53.89
2024-04-09T11:22:56.510Z,53.89
2024-04-09T11:23:56.523Z,53.80
2024-04-09T11:24:56.485Z,53.80
2024-04-09T11:25:56.515Z,53.87
2024-04-09T11:26:56.471Z,53.67
2024-04-09T11:27:56.469Z,53.38
2024-04-09T11:28:56.483Z,53.47
2024-04-09T11:29:56.444Z,53.35
2024-04-09T11:30:56.491Z,53.05
2024-04-09T11:31:56.414Z,52.95
2024-04-09T11:32:56.599Z,52.66
2024-04-09T11:33:56.528Z,52.83
2024-04-09T11:34:56.499Z,52.83
2024-04-09T11:35:56.394Z,52.91
2024-04-09T11:36:56.398Z,52.28
2024-04-09T11:37:56.357Z,52.19
2024-04-09T11:38:56.346Z,51.57
2024-04-09T11:39:56.394Z,51.67
2024-04-09T11:40:56.327Z,51.45
2024-04-09T11:41:56.311Z,50.24
2024-04-09T11:42:56.298Z,50.04
2024-04-09T11:43:56.309Z,50.21
2024-04-09T11:44:56.315Z,49.73
2024-04-09T11:45:56.295Z,49.52
2024-04-09T11:46:56.325Z,49.70
2024-04-09T11:47:56.346Z,47.14
2024-04-09T11:49:02.250Z,47.36
2024-04-09T11:49:56.237Z,47.85
2024-04-09T11:50:56.239Z,47.66
2024-04-09T11:51:56.258Z,47.75
2024-04-09T11:52:56.196Z,47.16
2024-04-09T11:53:56.187Z,47.16
2024-04-09T11:54:56.289Z,46.77
2024-04-09T11:55:56.171Z,46.77
2024-04-09T11:56:56.157Z,46.87
2024-04-09T11:57:56.146Z,47.14
2024-04-09T11:58:56.151Z,46.47
2024-04-09T11:59:56.127Z,46.87
2024-04-09T12:00:56.232Z,46.77
2024-04-09T12:01:56.209Z,46.97
2024-04-09T12:02:56.089Z,47.26
2024-04-09T12:03:56.189Z,47.06
2024-04-09T12:04:56.167Z,46.57
2024-04-09T12:05:56.588Z,46.57
2024-04-09T12:06:56.136Z,46.37
2024-04-09T12:07:56.040Z,46.57
2024-04-09T12:08:56.030Z,47.09
2024-04-09T12:09:56.033Z,47.28
2024-04-09T12:10:56.137Z,47.26
2024-04-09T12:11:56.003Z,47.46
2024-04-09T12:12:55.990Z,47.56
2024-04-09T12:13:55.985Z,47.85
2024-04-09T12:14:55.996Z,47.85
2024-04-09T12:15:55.993Z,47.95
2024-04-09T12:16:55.965Z,48.05
2024-04-09T12:17:56.129Z,48.05
2024-04-09T12:18:56.079Z,47.85
2024-04-09T12:19:55.918Z,47.95
2024-04-09T12:20:55.928Z,48.13
2024-04-09T12:21:55.948Z,47.73
2024-04-09T12:22:55.899Z,48.03
2024-04-09T12:23:55.902Z,48.03
2024-04-09T12:24:55.868Z,47.92
2024-04-09T12:25:55.855Z,47.92
2024-04-09T12:26:55.856Z,48.13
2024-04-09T12:27:55.942Z,47.85
2024-04-09T12:28:55.846Z,48.35
2024-04-09T12:29:55.810Z,48.54
2024-04-09T12:30:55.860Z,48.54
2024-04-09T12:31:55.813Z,48.83
2024-04-09T12:32:55.830Z,49.13
2024-04-09T12:33:55.985Z,49.23
2024-04-09T12:34:56.014Z,49.04
2024-04-09T12:35:55.755Z,49.04
2024-04-09T12:36:55.752Z,48.83
2024-04-09T12:37:55.729Z,49.04
2024-04-09T12:38:55.725Z,48.94
2024-04-09T12:39:55.753Z,49.16
2024-04-09T12:40:55.706Z,49.45
2024-04-09T12:41:55.697Z,49.65
2024-04-09T12:42:55.712Z,49.97
2024-04-09T12:43:55.678Z,50.29
2024-04-09T12:44:55.679Z,50.49
2024-04-09T12:45:55.722Z,50.59
2024-04-09T12:46:55.670Z,50.71
2024-04-09T12:47:55.826Z,51.00
2024-04-09T12:49:10.301Z,51.52
2024-04-09T12:49:55.703Z,50.83
2024-04-09T12:50:55.631Z,51.05
2024-04-09T12:51:55.624Z,50.95